sensor_id;sensor_type;location;lat;lon;timestamp;P1;durP1;ratioP1;P2;durP2;ratioP2
12892;SDS011;6514;48.606;9.222;2023-04-03T00:00:29;3.13;;;2.83;;
12892;SDS011;6514;48.606;9.222;2023-04-03T00:02:57;3.70;;;3.00;;
12892;SDS011;6514;48.606;9.222;2023-04-03T00:05:24;4.70;;;3.20;;
12892;SDS011;6514;48.606;9.222;2023-04-03T00:07:51;3.40;;;2.90;;
12892;SDS011;6514;48.606;9.222;2023-04-03T00:10:19;5.17;;;3.27;;
12892;SDS011;6514;48.606;9.222;2023-04-03T00:12:46;3.60;;;2.90;;
12892;SDS011;6514;48.606;9.222;2023-04-03T00:15:13;3.80;;;2.87;;
12892;SDS011;6514;48.606;9.222;2023-04-03T00:17:40;3.53;;;3.23;;
12892;SDS011;6514;48.606;9.222;2023-04-03T00:20:07;4.47;;;3.73;;
12892;SDS011;6514;48.606;9.222;2023-04-03T00:22:35;4.60;;;3.10;;
12892;SDS011;6514;48.606;9.222;2023-04-03T00:25:02;3.13;;;2.60;;
12892;SDS011;6514;48.606;9.222;2023-04-03T00:27:30;4.40;;;2.90;;
12892;SDS011;6514;48.606;9.222;2023-04-03T00:29:57;3.73;;;3.20;;
12892;SDS011;6514;48.606;9.222;2023-04-03T00:32:24;3.50;;;3.20;;
12892;SDS011;6514;48.606;9.222;2023-04-03T00:34:50;3.23;;;2.93;;
12892;SDS011;6514;48.606;9.222;2023-04-03T00:37:17;4.10;;;3.20;;
12892;SDS011;6514;48.606;9.222;2023-04-03T00:39:44;4.07;;;3.20;;
12892;SDS011;6514;48.606;9.222;2023-04-03T00:42:11;3.77;;;2.97;;
12892;SDS011;6514;48.606;9.222;2023-04-03T00:47:55;4.17;;;3.00;;
12892;SDS011;6514;48.606;9.222;2023-04-03T00:50:24;3.53;;;3.13;;
12892;SDS011;6514;48.606;9.222;2023-04-03T00:52:52;3.10;;;2.70;;
12892;SDS011;6514;48.606;9.222;2023-04-03T00:55:21;5.00;;;3.10;;
12892;SDS011;6514;48.606;9.222;2023-04-03T00:57:48;3.20;;;2.90;;
12892;SDS011;6514;48.606;9.222;2023-04-03T01:00:16;4.27;;;3.40;;
12892;SDS011;6514;48.606;9.222;2023-04-03T01:02:45;5.27;;;3.03;;
12892;SDS011;6514;48.606;9.222;2023-04-03T01:05:13;4.40;;;3.00;;
12892;SDS011;6514;48.606;9.222;2023-04-03T01:07:43;3.43;;;3.00;;
12892;SDS011;6514;48.606;9.222;2023-04-03T01:10:12;3.70;;;3.10;;
12892;SDS011;6514;48.606;9.222;2023-04-03T01:12:43;3.60;;;3.30;;
12892;SDS011;6514;48.606;9.222;2023-04-03T01:15:12;3.90;;;3.37;;
12892;SDS011;6514;48.606;9.222;2023-04-03T01:17:42;3.50;;;3.03;;
12892;SDS011;6514;48.606;9.222;2023-04-03T01:23:16;3.40;;;3.00;;
12892;SDS011;6514;48.606;9.222;2023-04-03T01:25:52;4.97;;;3.17;;
12892;SDS011;6514;48.606;9.222;2023-04-03T01:28:21;3.53;;;3.23;;
12892;SDS011;6514;48.606;9.222;2023-04-03T01:30:50;3.60;;;3.30;;
12892;SDS011;6514;48.606;9.222;2023-04-03T01:33:26;3.40;;;3.10;;
12892;SDS011;6514;48.606;9.222;2023-04-03T01:35:53;3.90;;;3.10;;
12892;SDS011;6514;48.606;9.222;2023-04-03T01:38:20;3.50;;;3.13;;
12892;SDS011;6514;48.606;9.222;2023-04-03T01:40:46;4.57;;;3.00;;
12892;SDS011;6514;48.606;9.222;2023-04-03T01:43:13;4.10;;;3.50;;
12892;SDS011;6514;48.606;9.222;2023-04-03T01:45:40;3.63;;;3.17;;
12892;SDS011;6514;48.606;9.222;2023-04-03T01:48:07;4.30;;;3.20;;
12892;SDS011;6514;48.606;9.222;2023-04-03T01:50:35;3.40;;;3.10;;
12892;SDS011;6514;48.606;9.222;2023-04-03T01:53:02;3.93;;;3.03;;
12892;SDS011;6514;48.606;9.222;2023-04-03T01:55:29;4.33;;;3.63;;
12892;SDS011;6514;48.606;9.222;2023-04-03T01:57:56;3.43;;;3.10;;
12892;SDS011;6514;48.606;9.222;2023-04-03T02:00:23;4.00;;;3.60;;
12892;SDS011;6514;48.606;9.222;2023-04-03T02:02:50;3.60;;;3.10;;
12892;SDS011;6514;48.606;9.222;2023-04-03T02:05:17;4.23;;;3.57;;
12892;SDS011;6514;48.606;9.222;2023-04-03T02:07:45;5.43;;;3.40;;
12892;SDS011;6514;48.606;9.222;2023-04-03T02:10:12;5.83;;;3.73;;
12892;SDS011;6514;48.606;9.222;2023-04-03T02:12:39;5.70;;;2.90;;
12892;SDS011;6514;48.606;9.222;2023-04-03T02:15:06;4.27;;;3.67;;
12892;SDS011;6514;48.606;9.222;2023-04-03T02:17:34;3.17;;;2.63;;
12892;SDS011;6514;48.606;9.222;2023-04-03T02:20:02;3.20;;;2.87;;
12892;SDS011;6514;48.606;9.222;2023-04-03T02:22:29;3.90;;;3.20;;
12892;SDS011;6514;48.606;9.222;2023-04-03T02:24:57;4.37;;;3.33;;
12892;SDS011;6514;48.606;9.222;2023-04-03T02:27:24;4.77;;;3.50;;
12892;SDS011;6514;48.606;9.222;2023-04-03T02:29:51;3.80;;;3.00;;
12892;SDS011;6514;48.606;9.222;2023-04-03T02:32:18;3.40;;;3.00;;
12892;SDS011;6514;48.606;9.222;2023-04-03T02:34:45;4.20;;;3.03;;
12892;SDS011;6514;48.606;9.222;2023-04-03T02:37:11;3.17;;;2.87;;
12892;SDS011;6514;48.606;9.222;2023-04-03T02:39:38;3.53;;;2.90;;
12892;SDS011;6514;48.606;9.222;2023-04-03T02:42:07;3.33;;;3.03;;
12892;SDS011;6514;48.606;9.222;2023-04-03T02:44:34;4.90;;;3.00;;
12892;SDS011;6514;48.606;9.222;2023-04-03T02:47:00;3.17;;;2.87;;
12892;SDS011;6514;48.606;9.222;2023-04-03T02:49:27;3.20;;;2.90;;
12892;SDS011;6514;48.606;9.222;2023-04-03T02:51:54;4.57;;;3.03;;
12892;SDS011;6514;48.606;9.222;2023-04-03T02:54:21;3.43;;;3.10;;
12892;SDS011;6514;48.606;9.222;2023-04-03T02:56:49;3.80;;;3.00;;
12892;SDS011;6514;48.606;9.222;2023-04-03T02:59:18;3.50;;;3.20;;
12892;SDS011;6514;48.606;9.222;2023-04-03T03:01:45;3.10;;;2.73;;
12892;SDS011;6514;48.606;9.222;2023-04-03T03:04:12;3.63;;;2.90;;
12892;SDS011;6514;48.606;9.222;2023-04-03T03:06:39;4.67;;;3.43;;
12892;SDS011;6514;48.606;9.222;2023-04-03T03:09:06;3.20;;;2.90;;
12892;SDS011;6514;48.606;9.222;2023-04-03T03:11:33;3.77;;;3.10;;
12892;SDS011;6514;48.606;9.222;2023-04-03T03:14:00;3.17;;;2.50;;
12892;SDS011;6514;48.606;9.222;2023-04-03T03:16:28;3.53;;;2.83;;
12892;SDS011;6514;48.606;9.222;2023-04-03T03:18:55;4.27;;;3.10;;
12892;SDS011;6514;48.606;9.222;2023-04-03T03:21:21;3.40;;;3.13;;
12892;SDS011;6514;48.606;9.222;2023-04-03T03:23:48;3.80;;;2.90;;
12892;SDS011;6514;48.606;9.222;2023-04-03T03:26:15;3.30;;;2.97;;
12892;SDS011;6514;48.606;9.222;2023-04-03T03:28:42;3.13;;;2.83;;
12892;SDS011;6514;48.606;9.222;2023-04-03T03:31:09;4.33;;;2.93;;
12892;SDS011;6514;48.606;9.222;2023-04-03T03:33:38;3.53;;;2.90;;
12892;SDS011;6514;48.606;9.222;2023-04-03T03:36:06;3.40;;;2.90;;
12892;SDS011;6514;48.606;9.222;2023-04-03T03:38:33;4.60;;;4.20;;
12892;SDS011;6514;48.606;9.222;2023-04-03T03:40:59;3.33;;;2.60;;
12892;SDS011;6514;48.606;9.222;2023-04-03T03:43:26;4.03;;;2.97;;
12892;SDS011;6514;48.606;9.222;2023-04-03T03:45:53;3.50;;;2.97;;
12892;SDS011;6514;48.606;9.222;2023-04-03T03:48:21;3.63;;;2.70;;
12892;SDS011;6514;48.606;9.222;2023-04-03T03:50:49;3.13;;;2.77;;
12892;SDS011;6514;48.606;9.222;2023-04-03T03:53:16;3.53;;;2.50;;
12892;SDS011;6514;48.606;9.222;2023-04-03T03:55:43;3.23;;;2.47;;
12892;SDS011;6514;48.606;9.222;2023-04-03T03:58:09;3.93;;;2.70;;
12892;SDS011;6514;48.606;9.222;2023-04-03T04:00:36;3.43;;;3.00;;
12892;SDS011;6514;48.606;9.222;2023-04-03T04:03:03;4.20;;;3.30;;
12892;SDS011;6514;48.606;9.222;2023-04-03T04:05:30;3.27;;;2.60;;
12892;SDS011;6514;48.606;9.222;2023-04-03T04:07:58;2.60;;;2.40;;
12892;SDS011;6514;48.606;9.222;2023-04-03T04:10:25;3.00;;;2.77;;
12892;SDS011;6514;48.606;9.222;2023-04-03T04:12:52;5.00;;;2.60;;
12892;SDS011;6514;48.606;9.222;2023-04-03T04:15:19;2.70;;;2.50;;
12892;SDS011;6514;48.606;9.222;2023-04-03T04:17:46;2.87;;;2.40;;
12892;SDS011;6514;48.606;9.222;2023-04-03T04:20:13;4.50;;;2.90;;
12892;SDS011;6514;48.606;9.222;2023-04-03T04:22:40;3.33;;;3.03;;
12892;SDS011;6514;48.606;9.222;2023-04-03T04:25:09;4.23;;;3.20;;
12892;SDS011;6514;48.606;9.222;2023-04-03T04:27:36;2.63;;;2.40;;
12892;SDS011;6514;48.606;9.222;2023-04-03T04:30:03;3.60;;;2.90;;
12892;SDS011;6514;48.606;9.222;2023-04-03T04:32:31;3.93;;;2.70;;
12892;SDS011;6514;48.606;9.222;2023-04-03T04:34:58;3.33;;;2.70;;
12892;SDS011;6514;48.606;9.222;2023-04-03T04:37:25;3.50;;;2.80;;
12892;SDS011;6514;48.606;9.222;2023-04-03T04:39:52;3.80;;;2.97;;
12892;SDS011;6514;48.606;9.222;2023-04-03T04:42:20;5.23;;;2.80;;
12892;SDS011;6514;48.606;9.222;2023-04-03T04:44:47;3.07;;;2.60;;
12892;SDS011;6514;48.606;9.222;2023-04-03T04:47:14;2.93;;;2.60;;
12892;SDS011;6514;48.606;9.222;2023-04-03T04:49:41;3.00;;;2.70;;
12892;SDS011;6514;48.606;9.222;2023-04-03T04:52:08;3.40;;;2.97;;
12892;SDS011;6514;48.606;9.222;2023-04-03T04:54:34;3.43;;;3.07;;
12892;SDS011;6514;48.606;9.222;2023-04-03T04:57:01;3.17;;;2.90;;
12892;SDS011;6514;48.606;9.222;2023-04-03T04:59:30;3.10;;;2.80;;
12892;SDS011;6514;48.606;9.222;2023-04-03T05:01:56;4.33;;;2.60;;
12892;SDS011;6514;48.606;9.222;2023-04-03T05:04:23;3.83;;;2.83;;
12892;SDS011;6514;48.606;9.222;2023-04-03T05:06:50;3.90;;;2.73;;
12892;SDS011;6514;48.606;9.222;2023-04-03T05:09:17;2.40;;;2.20;;
12892;SDS011;6514;48.606;9.222;2023-04-03T05:11:45;3.13;;;2.60;;
12892;SDS011;6514;48.606;9.222;2023-04-03T05:14:12;2.70;;;2.50;;
12892;SDS011;6514;48.606;9.222;2023-04-03T05:16:40;2.50;;;2.30;;
12892;SDS011;6514;48.606;9.222;2023-04-03T05:19:07;2.40;;;2.20;;
12892;SDS011;6514;48.606;9.222;2023-04-03T05:21:34;3.37;;;2.33;;
12892;SDS011;6514;48.606;9.222;2023-04-03T05:24:00;2.60;;;2.40;;
12892;SDS011;6514;48.606;9.222;2023-04-03T05:26:28;2.80;;;2.40;;
12892;SDS011;6514;48.606;9.222;2023-04-03T05:28:56;9.23;;;5.23;;
12892;SDS011;6514;48.606;9.222;2023-04-03T05:31:22;2.70;;;2.23;;
12892;SDS011;6514;48.606;9.222;2023-04-03T05:33:51;3.90;;;2.63;;
12892;SDS011;6514;48.606;9.222;2023-04-03T05:36:18;5.43;;;2.50;;
12892;SDS011;6514;48.606;9.222;2023-04-03T05:38:45;2.57;;;2.37;;
12892;SDS011;6514;48.606;9.222;2023-04-03T05:41:12;2.50;;;2.30;;
12892;SDS011;6514;48.606;9.222;2023-04-03T05:43:39;2.40;;;2.20;;
12892;SDS011;6514;48.606;9.222;2023-04-03T05:46:08;2.30;;;2.10;;
12892;SDS011;6514;48.606;9.222;2023-04-03T05:48:36;2.60;;;2.13;;
12892;SDS011;6514;48.606;9.222;2023-04-03T05:51:05;2.33;;;2.13;;
12892;SDS011;6514;48.606;9.222;2023-04-03T05:53:33;2.67;;;2.13;;
12892;SDS011;6514;48.606;9.222;2023-04-03T05:56:02;3.40;;;2.43;;
12892;SDS011;6514;48.606;9.222;2023-04-03T05:58:29;1.97;;;1.77;;
12892;SDS011;6514;48.606;9.222;2023-04-03T06:00:56;1.83;;;1.63;;
12892;SDS011;6514;48.606;9.222;2023-04-03T06:03:23;2.93;;;1.90;;
12892;SDS011;6514;48.606;9.222;2023-04-03T06:05:53;2.20;;;1.90;;
12892;SDS011;6514;48.606;9.222;2023-04-03T06:08:21;2.77;;;2.07;;
12892;SDS011;6514;48.606;9.222;2023-04-03T06:10:49;2.23;;;2.03;;
12892;SDS011;6514;48.606;9.222;2023-04-03T06:13:16;2.47;;;2.10;;
12892;SDS011;6514;48.606;9.222;2023-04-03T06:15:43;3.27;;;1.97;;
12892;SDS011;6514;48.606;9.222;2023-04-03T06:18:10;2.03;;;1.77;;
12892;SDS011;6514;48.606;9.222;2023-04-03T06:20:37;2.60;;;2.30;;
12892;SDS011;6514;48.606;9.222;2023-04-03T06:23:04;2.37;;;2.17;;
12892;SDS011;6514;48.606;9.222;2023-04-03T06:25:32;2.80;;;1.90;;
12892;SDS011;6514;48.606;9.222;2023-04-03T06:27:59;3.70;;;1.90;;
12892;SDS011;6514;48.606;9.222;2023-04-03T06:30:26;2.27;;;2.07;;
12892;SDS011;6514;48.606;9.222;2023-04-03T06:32:53;2.60;;;1.87;;
12892;SDS011;6514;48.606;9.222;2023-04-03T06:35:20;2.40;;;2.20;;
12892;SDS011;6514;48.606;9.222;2023-04-03T06:37:48;1.60;;;1.50;;
12892;SDS011;6514;48.606;9.222;2023-04-03T06:40:16;2.33;;;1.83;;
12892;SDS011;6514;48.606;9.222;2023-04-03T06:42:48;3.70;;;2.00;;
12892;SDS011;6514;48.606;9.222;2023-04-03T06:45:15;2.30;;;2.10;;
12892;SDS011;6514;48.606;9.222;2023-04-03T06:47:42;2.20;;;2.00;;
12892;SDS011;6514;48.606;9.222;2023-04-03T06:50:10;2.47;;;1.70;;
12892;SDS011;6514;48.606;9.222;2023-04-03T06:52:39;2.37;;;1.97;;
12892;SDS011;6514;48.606;9.222;2023-04-03T06:55:06;1.87;;;1.70;;
12892;SDS011;6514;48.606;9.222;2023-04-03T06:57:34;3.13;;;2.10;;
12892;SDS011;6514;48.606;9.222;2023-04-03T07:00:02;2.17;;;1.70;;
12892;SDS011;6514;48.606;9.222;2023-04-03T07:02:30;2.17;;;1.87;;
12892;SDS011;6514;48.606;9.222;2023-04-03T07:04:57;2.20;;;2.00;;
12892;SDS011;6514;48.606;9.222;2023-04-03T07:07:24;3.20;;;2.20;;
12892;SDS011;6514;48.606;9.222;2023-04-03T07:09:51;2.73;;;1.93;;
12892;SDS011;6514;48.606;9.222;2023-04-03T07:12:18;3.57;;;2.20;;
12892;SDS011;6514;48.606;9.222;2023-04-03T07:14:45;1.83;;;1.70;;
12892;SDS011;6514;48.606;9.222;2023-04-03T07:17:13;5.87;;;3.63;;
12892;SDS011;6514;48.606;9.222;2023-04-03T07:19:40;3.00;;;2.50;;
12892;SDS011;6514;48.606;9.222;2023-04-03T07:22:07;2.90;;;1.97;;
12892;SDS011;6514;48.606;9.222;2023-04-03T07:24:34;3.33;;;2.10;;
12892;SDS011;6514;48.606;9.222;2023-04-03T07:27:01;3.33;;;2.07;;
12892;SDS011;6514;48.606;9.222;2023-04-03T07:29:28;1.90;;;1.70;;
12892;SDS011;6514;48.606;9.222;2023-04-03T07:31:55;4.43;;;2.20;;
12892;SDS011;6514;48.606;9.222;2023-04-03T07:34:24;2.47;;;1.90;;
12892;SDS011;6514;48.606;9.222;2023-04-03T07:36:51;2.10;;;1.90;;
12892;SDS011;6514;48.606;9.222;2023-04-03T07:39:17;3.13;;;1.90;;
12892;SDS011;6514;48.606;9.222;2023-04-03T07:41:44;2.63;;;1.90;;
12892;SDS011;6514;48.606;9.222;2023-04-03T07:44:11;2.07;;;1.77;;
12892;SDS011;6514;48.606;9.222;2023-04-03T07:46:38;4.07;;;2.37;;
12892;SDS011;6514;48.606;9.222;2023-04-03T07:49:05;3.13;;;2.40;;
12892;SDS011;6514;48.606;9.222;2023-04-03T07:51:34;3.53;;;2.40;;
12892;SDS011;6514;48.606;9.222;2023-04-03T07:54:01;3.03;;;2.10;;
12892;SDS011;6514;48.606;9.222;2023-04-03T07:56:28;2.93;;;2.00;;
12892;SDS011;6514;48.606;9.222;2023-04-03T07:58:55;3.03;;;2.07;;
12892;SDS011;6514;48.606;9.222;2023-04-03T08:01:22;2.60;;;2.00;;
12892;SDS011;6514;48.606;9.222;2023-04-03T08:03:49;3.10;;;2.10;;
12892;SDS011;6514;48.606;9.222;2023-04-03T08:06:16;3.37;;;2.00;;
12892;SDS011;6514;48.606;9.222;2023-04-03T08:08:44;2.83;;;1.90;;
12892;SDS011;6514;48.606;9.222;2023-04-03T08:11:12;3.87;;;2.40;;
12892;SDS011;6514;48.606;9.222;2023-04-03T08:13:39;4.77;;;1.90;;
12892;SDS011;6514;48.606;9.222;2023-04-03T08:16:07;3.30;;;2.10;;
12892;SDS011;6514;48.606;9.222;2023-04-03T08:18:36;3.87;;;1.90;;
12892;SDS011;6514;48.606;9.222;2023-04-03T08:21:05;2.53;;;2.20;;
12892;SDS011;6514;48.606;9.222;2023-04-03T08:23:32;2.40;;;1.90;;
12892;SDS011;6514;48.606;9.222;2023-04-03T08:26:04;3.90;;;2.20;;
12892;SDS011;6514;48.606;9.222;2023-04-03T08:28:32;2.10;;;1.90;;
12892;SDS011;6514;48.606;9.222;2023-04-03T08:31:02;2.67;;;2.10;;
12892;SDS011;6514;48.606;9.222;2023-04-03T08:33:30;2.37;;;1.80;;
12892;SDS011;6514;48.606;9.222;2023-04-03T08:35:57;3.10;;;2.10;;
12892;SDS011;6514;48.606;9.222;2023-04-03T08:38:24;3.67;;;2.30;;
12892;SDS011;6514;48.606;9.222;2023-04-03T08:41:00;2.73;;;2.00;;
12892;SDS011;6514;48.606;9.222;2023-04-03T08:43:36;3.00;;;2.37;;
12892;SDS011;6514;48.606;9.222;2023-04-03T08:46:13;2.40;;;2.17;;
12892;SDS011;6514;48.606;9.222;2023-04-03T08:48:41;3.43;;;2.10;;
12892;SDS011;6514;48.606;9.222;2023-04-03T08:51:10;2.03;;;1.80;;
12892;SDS011;6514;48.606;9.222;2023-04-03T08:53:42;2.27;;;1.77;;
12892;SDS011;6514;48.606;9.222;2023-04-03T08:56:13;2.20;;;1.87;;
12892;SDS011;6514;48.606;9.222;2023-04-03T08:58:44;2.80;;;1.80;;
12892;SDS011;6514;48.606;9.222;2023-04-03T09:01:17;2.47;;;1.90;;
12892;SDS011;6514;48.606;9.222;2023-04-03T09:03:47;1.60;;;1.50;;
12892;SDS011;6514;48.606;9.222;2023-04-03T09:06:14;3.50;;;2.00;;
12892;SDS011;6514;48.606;9.222;2023-04-03T09:08:44;2.37;;;1.90;;
12892;SDS011;6514;48.606;9.222;2023-04-03T09:11:19;2.63;;;1.83;;
12892;SDS011;6514;48.606;9.222;2023-04-03T09:13:54;3.83;;;2.20;;
12892;SDS011;6514;48.606;9.222;2023-04-03T09:16:28;3.80;;;2.90;;
12892;SDS011;6514;48.606;9.222;2023-04-03T09:19:02;3.30;;;2.20;;
12892;SDS011;6514;48.606;9.222;2023-04-03T09:21:40;4.03;;;2.10;;
12892;SDS011;6514;48.606;9.222;2023-04-03T09:24:09;1.70;;;1.60;;
12892;SDS011;6514;48.606;9.222;2023-04-03T09:26:41;2.90;;;1.93;;
12892;SDS011;6514;48.606;9.222;2023-04-03T09:29:13;6.93;;;2.20;;
12892;SDS011;6514;48.606;9.222;2023-04-03T09:31:45;3.50;;;2.00;;
12892;SDS011;6514;48.606;9.222;2023-04-03T09:34:15;3.20;;;2.13;;
12892;SDS011;6514;48.606;9.222;2023-04-03T09:36:48;2.33;;;1.70;;
12892;SDS011;6514;48.606;9.222;2023-04-03T09:39:17;2.67;;;1.70;;
12892;SDS011;6514;48.606;9.222;2023-04-03T09:41:56;2.87;;;1.80;;
12892;SDS011;6514;48.606;9.222;2023-04-03T09:44:28;2.53;;;1.93;;
12892;SDS011;6514;48.606;9.222;2023-04-03T09:46:56;3.53;;;1.97;;
12892;SDS011;6514;48.606;9.222;2023-04-03T09:49:24;2.37;;;1.70;;
12892;SDS011;6514;48.606;9.222;2023-04-03T09:51:51;3.83;;;2.03;;
12892;SDS011;6514;48.606;9.222;2023-04-03T09:54:32;3.07;;;2.07;;
12892;SDS011;6514;48.606;9.222;2023-04-03T09:57:09;2.30;;;2.10;;
12892;SDS011;6514;48.606;9.222;2023-04-03T09:59:40;3.03;;;1.90;;
12892;SDS011;6514;48.606;9.222;2023-04-03T10:02:20;2.57;;;1.80;;
12892;SDS011;6514;48.606;9.222;2023-04-03T10:05:26;2.03;;;1.80;;
12892;SDS011;6514;48.606;9.222;2023-04-03T10:08:08;2.17;;;1.80;;
12892;SDS011;6514;48.606;9.222;2023-04-03T10:10:44;3.57;;;1.70;;
12892;SDS011;6514;48.606;9.222;2023-04-03T10:13:14;4.27;;;1.90;;
12892;SDS011;6514;48.606;9.222;2023-04-03T10:15:46;2.93;;;1.77;;
12892;SDS011;6514;48.606;9.222;2023-04-03T10:18:22;2.73;;;1.87;;
12892;SDS011;6514;48.606;9.222;2023-04-03T10:20:59;2.90;;;1.80;;
12892;SDS011;6514;48.606;9.222;2023-04-03T10:23:33;3.33;;;1.80;;
12892;SDS011;6514;48.606;9.222;2023-04-03T10:26:09;2.17;;;1.53;;
12892;SDS011;6514;48.606;9.222;2023-04-03T10:28:45;3.57;;;1.80;;
12892;SDS011;6514;48.606;9.222;2023-04-03T10:31:20;2.73;;;1.60;;
12892;SDS011;6514;48.606;9.222;2023-04-03T10:33:52;2.17;;;1.50;;
12892;SDS011;6514;48.606;9.222;2023-04-03T10:36:28;3.07;;;1.50;;
12892;SDS011;6514;48.606;9.222;2023-04-03T10:39:04;1.73;;;1.63;;
12892;SDS011;6514;48.606;9.222;2023-04-03T10:41:42;1.83;;;1.37;;
12892;SDS011;6514;48.606;9.222;2023-04-03T10:44:26;2.03;;;1.33;;
12892;SDS011;6514;48.606;9.222;2023-04-03T10:47:03;2.83;;;1.60;;
12892;SDS011;6514;48.606;9.222;2023-04-03T10:49:40;1.30;;;1.20;;
12892;SDS011;6514;48.606;9.222;2023-04-03T10:52:14;2.37;;;1.53;;
12892;SDS011;6514;48.606;9.222;2023-04-03T10:54:46;1.93;;;1.60;;
12892;SDS011;6514;48.606;9.222;2023-04-03T10:57:21;3.00;;;1.53;;
12892;SDS011;6514;48.606;9.222;2023-04-03T10:59:53;1.47;;;1.27;;
12892;SDS011;6514;48.606;9.222;2023-04-03T11:02:23;3.07;;;1.73;;
12892;SDS011;6514;48.606;9.222;2023-04-03T11:04:53;1.60;;;1.43;;
12892;SDS011;6514;48.606;9.222;2023-04-03T11:07:24;1.93;;;1.40;;
12892;SDS011;6514;48.606;9.222;2023-04-03T11:09:57;2.43;;;1.40;;
12892;SDS011;6514;48.606;9.222;2023-04-03T11:12:39;1.40;;;1.17;;
12892;SDS011;6514;48.606;9.222;2023-04-03T11:17:43;2.37;;;1.57;;
12892;SDS011;6514;48.606;9.222;2023-04-03T11:20:16;2.23;;;1.60;;
12892;SDS011;6514;48.606;9.222;2023-04-03T11:22:47;3.57;;;2.63;;
12892;SDS011;6514;48.606;9.222;2023-04-03T11:25:19;3.33;;;2.00;;
12892;SDS011;6514;48.606;9.222;2023-04-03T11:27:49;2.43;;;1.50;;
12892;SDS011;6514;48.606;9.222;2023-04-03T11:30:22;2.07;;;1.70;;
12892;SDS011;6514;48.606;9.222;2023-04-03T11:33:03;3.60;;;1.77;;
12892;SDS011;6514;48.606;9.222;2023-04-03T11:35:42;2.23;;;1.50;;
12892;SDS011;6514;48.606;9.222;2023-04-03T11:38:13;2.50;;;2.00;;
12892;SDS011;6514;48.606;9.222;2023-04-03T11:40:45;2.53;;;1.93;;
12892;SDS011;6514;48.606;9.222;2023-04-03T11:43:19;2.20;;;1.63;;
12892;SDS011;6514;48.606;9.222;2023-04-03T11:45:52;3.70;;;1.73;;
12892;SDS011;6514;48.606;9.222;2023-04-03T12:12:29;2.10;;;1.37;;
12892;SDS011;6514;48.606;9.222;2023-04-03T12:15:21;1.80;;;1.43;;
12892;SDS011;6514;48.606;9.222;2023-04-03T12:21:08;2.17;;;1.10;;
12892;SDS011;6514;48.606;9.222;2023-04-03T12:23:36;1.67;;;1.23;;
12892;SDS011;6514;48.606;9.222;2023-04-03T12:26:22;4.93;;;2.73;;
12892;SDS011;6514;48.606;9.222;2023-04-03T12:28:53;2.13;;;1.80;;
12892;SDS011;6514;48.606;9.222;2023-04-03T12:31:22;1.87;;;1.40;;
12892;SDS011;6514;48.606;9.222;2023-04-03T12:34:01;2.47;;;1.30;;
12892;SDS011;6514;48.606;9.222;2023-04-03T12:36:41;2.67;;;1.30;;
12892;SDS011;6514;48.606;9.222;2023-04-03T12:39:20;3.93;;;1.40;;
12892;SDS011;6514;48.606;9.222;2023-04-03T12:42:04;2.03;;;1.57;;
12892;SDS011;6514;48.606;9.222;2023-04-03T12:44:51;2.63;;;1.40;;
12892;SDS011;6514;48.606;9.222;2023-04-03T12:47:27;1.40;;;1.30;;
12892;SDS011;6514;48.606;9.222;2023-04-03T12:49:59;2.10;;;1.73;;
12892;SDS011;6514;48.606;9.222;2023-04-03T12:52:30;1.83;;;1.70;;
12892;SDS011;6514;48.606;9.222;2023-04-03T12:55:01;3.33;;;2.93;;
12892;SDS011;6514;48.606;9.222;2023-04-03T12:57:30;2.67;;;1.87;;
12892;SDS011;6514;48.606;9.222;2023-04-03T12:59:58;3.97;;;2.43;;
12892;SDS011;6514;48.606;9.222;2023-04-03T13:02:26;3.97;;;2.17;;
12892;SDS011;6514;48.606;9.222;2023-04-03T13:04:55;3.30;;;2.57;;
12892;SDS011;6514;48.606;9.222;2023-04-03T13:07:28;4.17;;;2.53;;
12892;SDS011;6514;48.606;9.222;2023-04-03T13:09:58;3.80;;;2.07;;
12892;SDS011;6514;48.606;9.222;2023-04-03T13:12:28;7.93;;;4.67;;
12892;SDS011;6514;48.606;9.222;2023-04-03T13:14:56;3.43;;;2.00;;
12892;SDS011;6514;48.606;9.222;2023-04-03T13:17:25;3.00;;;1.50;;
12892;SDS011;6514;48.606;9.222;2023-04-03T13:19:53;2.63;;;1.50;;
12892;SDS011;6514;48.606;9.222;2023-04-03T13:22:26;3.97;;;2.10;;
12892;SDS011;6514;48.606;9.222;2023-04-03T13:24:58;8.20;;;4.87;;
12892;SDS011;6514;48.606;9.222;2023-04-03T13:27:30;1.77;;;1.63;;
12892;SDS011;6514;48.606;9.222;2023-04-03T13:29:58;2.70;;;1.60;;
12892;SDS011;6514;48.606;9.222;2023-04-03T13:32:28;4.03;;;2.07;;
12892;SDS011;6514;48.606;9.222;2023-04-03T13:34:57;2.70;;;2.17;;
12892;SDS011;6514;48.606;9.222;2023-04-03T13:37:26;2.23;;;1.73;;
12892;SDS011;6514;48.606;9.222;2023-04-03T13:40:00;1.97;;;1.30;;
12892;SDS011;6514;48.606;9.222;2023-04-03T13:42:30;4.23;;;2.10;;
12892;SDS011;6514;48.606;9.222;2023-04-03T13:45:14;3.30;;;1.97;;
12892;SDS011;6514;48.606;9.222;2023-04-03T13:47:45;2.83;;;1.77;;
12892;SDS011;6514;48.606;9.222;2023-04-03T13:50:14;3.30;;;1.70;;
12892;SDS011;6514;48.606;9.222;2023-04-03T13:52:44;4.77;;;4.37;;
12892;SDS011;6514;48.606;9.222;2023-04-03T13:55:19;3.77;;;2.00;;
12892;SDS011;6514;48.606;9.222;2023-04-03T13:57:49;2.00;;;1.73;;
12892;SDS011;6514;48.606;9.222;2023-04-03T14:00:20;1.70;;;1.60;;
12892;SDS011;6514;48.606;9.222;2023-04-03T14:02:53;2.37;;;1.50;;
12892;SDS011;6514;48.606;9.222;2023-04-03T14:05:22;3.07;;;1.60;;
12892;SDS011;6514;48.606;9.222;2023-04-03T14:07:50;2.20;;;1.53;;
12892;SDS011;6514;48.606;9.222;2023-04-03T14:10:18;2.90;;;1.70;;
12892;SDS011;6514;48.606;9.222;2023-04-03T14:12:45;1.47;;;1.30;;
12892;SDS011;6514;48.606;9.222;2023-04-03T14:15:16;1.83;;;1.60;;
12892;SDS011;6514;48.606;9.222;2023-04-03T14:17:44;3.23;;;1.77;;
12892;SDS011;6514;48.606;9.222;2023-04-03T14:20:14;3.60;;;1.47;;
12892;SDS011;6514;48.606;9.222;2023-04-03T14:22:41;2.37;;;1.40;;
12892;SDS011;6514;48.606;9.222;2023-04-03T14:25:09;1.83;;;1.43;;
12892;SDS011;6514;48.606;9.222;2023-04-03T14:27:38;2.10;;;1.53;;
12892;SDS011;6514;48.606;9.222;2023-04-03T14:30:07;1.90;;;1.27;;
12892;SDS011;6514;48.606;9.222;2023-04-03T14:32:38;1.90;;;1.40;;
12892;SDS011;6514;48.606;9.222;2023-04-03T14:35:05;1.60;;;1.20;;
12892;SDS011;6514;48.606;9.222;2023-04-03T14:37:32;1.80;;;1.67;;
12892;SDS011;6514;48.606;9.222;2023-04-03T14:40:01;2.73;;;1.63;;
12892;SDS011;6514;48.606;9.222;2023-04-03T14:42:31;2.43;;;1.80;;
12892;SDS011;6514;48.606;9.222;2023-04-03T14:45:01;1.40;;;1.17;;
12892;SDS011;6514;48.606;9.222;2023-04-03T14:47:30;2.67;;;1.50;;
12892;SDS011;6514;48.606;9.222;2023-04-03T14:49:57;2.57;;;1.47;;
12892;SDS011;6514;48.606;9.222;2023-04-03T14:52:27;2.10;;;1.50;;
12892;SDS011;6514;48.606;9.222;2023-04-03T14:54:55;2.37;;;1.50;;
12892;SDS011;6514;48.606;9.222;2023-04-03T14:57:23;2.07;;;1.57;;
12892;SDS011;6514;48.606;9.222;2023-04-03T14:59:51;2.63;;;1.43;;
12892;SDS011;6514;48.606;9.222;2023-04-03T15:02:27;2.50;;;1.80;;
12892;SDS011;6514;48.606;9.222;2023-04-03T15:04:55;2.87;;;1.53;;
12892;SDS011;6514;48.606;9.222;2023-04-03T15:07:22;2.80;;;1.47;;
12892;SDS011;6514;48.606;9.222;2023-04-03T15:09:49;2.10;;;1.40;;
12892;SDS011;6514;48.606;9.222;2023-04-03T15:12:17;1.63;;;1.33;;
12892;SDS011;6514;48.606;9.222;2023-04-03T15:14:44;1.97;;;1.67;;
12892;SDS011;6514;48.606;9.222;2023-04-03T15:17:13;3.43;;;1.70;;
12892;SDS011;6514;48.606;9.222;2023-04-03T15:19:44;3.43;;;2.40;;
12892;SDS011;6514;48.606;9.222;2023-04-03T15:22:12;3.50;;;2.40;;
12892;SDS011;6514;48.606;9.222;2023-04-03T15:24:40;3.17;;;2.50;;
12892;SDS011;6514;48.606;9.222;2023-04-03T15:27:08;2.20;;;2.00;;
12892;SDS011;6514;48.606;9.222;2023-04-03T15:29:35;3.13;;;1.97;;
12892;SDS011;6514;48.606;9.222;2023-04-03T15:32:03;2.03;;;1.70;;
12892;SDS011;6514;48.606;9.222;2023-04-03T15:34:30;2.73;;;1.90;;
12892;SDS011;6514;48.606;9.222;2023-04-03T15:36:58;2.57;;;1.93;;
12892;SDS011;6514;48.606;9.222;2023-04-03T15:39:25;1.97;;;1.80;;
12892;SDS011;6514;48.606;9.222;2023-04-03T15:41:52;2.50;;;1.80;;
12892;SDS011;6514;48.606;9.222;2023-04-03T15:44:21;3.53;;;3.00;;
12892;SDS011;6514;48.606;9.222;2023-04-03T15:46:48;3.80;;;2.40;;
12892;SDS011;6514;48.606;9.222;2023-04-03T15:49:16;4.13;;;2.50;;